createdAt,value
2022-07-29T00:01:31.797Z,4.85
2022-07-29T00:04:18.223Z,6.03
2022-07-29T00:07:06.221Z,5.40
2022-07-29T00:09:53.774Z,5.00
2022-07-29T00:12:43.225Z,5.88
2022-07-29T00:15:30.123Z,5.88
2022-07-29T00:18:16.315Z,5.28
2022-07-29T00:21:01.918Z,5.70
2022-07-29T00:23:48.096Z,5.85
2022-07-29T00:26:34.320Z,4.95
2022-07-29T00:29:36.088Z,4.85
2022-07-29T00:32:22.821Z,4.93
2022-07-29T00:35:27.707Z,5.75
2022-07-29T00:38:15.050Z,4.80
2022-07-29T00:41:01.912Z,5.00
2022-07-29T00:43:48.336Z,5.25
2022-07-29T00:46:37.302Z,5.68
2022-07-29T00:49:26.814Z,5.82
2022-07-29T00:52:18.209Z,6.00
2022-07-29T00:55:08.789Z,7.15
2022-07-29T00:57:56.211Z,7.40
2022-07-29T01:00:42.394Z,7.30
2022-07-29T01:03:28.713Z,6.10
2022-07-29T01:06:16.818Z,6.75
2022-07-29T01:09:03.774Z,6.60
2022-07-29T01:11:50.383Z,6.93
2022-07-29T01:14:37.879Z,6.78
2022-07-29T01:17:53.357Z,6.72
2022-07-29T01:21:13.789Z,6.60
2022-07-29T01:24:08.628Z,6.95
2022-07-29T01:27:16.311Z,7.10
2022-07-29T01:30:05.342Z,6.88
2022-07-29T01:32:56.325Z,7.05
2022-07-29T01:35:46.534Z,7.10
2022-07-29T01:38:35.445Z,6.30
2022-07-29T01:41:22.851Z,6.80
2022-07-29T01:44:15.245Z,6.30
2022-07-29T01:47:05.484Z,6.55
2022-07-29T01:49:53.778Z,7.05
2022-07-29T01:52:47.942Z,5.80
2022-07-29T01:55:41.554Z,6.80
2022-07-29T01:58:29.797Z,6.15
2022-07-29T02:01:17.066Z,6.20
2022-07-29T02:04:07.702Z,6.93
2022-07-29T02:06:59.537Z,6.40
2022-07-29T02:09:48.812Z,6.50
2022-07-29T02:12:36.757Z,6.80
2022-07-29T02:15:25.078Z,5.78
2022-07-29T02:18:18.147Z,6.70
2022-07-29T02:21:05.828Z,6.18
2022-07-29T02:24:04.322Z,5.97
2022-07-29T02:26:51.334Z,4.93
2022-07-29T02:29:38.798Z,5.82
2022-07-29T02:32:29.801Z,5.88
2022-07-29T02:35:17.824Z,5.47
2022-07-29T02:38:23.389Z,5.60
2022-07-29T02:41:12.769Z,5.10
2022-07-29T02:44:05.906Z,4.95
2022-07-29T02:47:00.707Z,5.03
2022-07-29T02:49:56.072Z,4.90
2022-07-29T02:52:46.863Z,4.70
2022-07-29T02:55:38.140Z,4.57
2022-07-29T02:58:32.230Z,5.20
2022-07-29T03:01:22.955Z,4.75
2022-07-29T03:04:11.179Z,4.70
2022-07-29T03:07:00.700Z,4.63
2022-07-29T03:09:47.684Z,4.13
2022-07-29T03:12:33.819Z,4.90
2022-07-29T03:15:21.157Z,4.45
2022-07-29T03:18:10.907Z,4.75
2022-07-29T03:20:57.807Z,4.78
2022-07-29T03:23:46.851Z,4.88
2022-07-29T03:26:33.589Z,4.70
2022-07-29T03:29:19.067Z,4.40
2022-07-29T03:32:08.671Z,4.32
2022-07-29T03:34:54.841Z,3.88
2022-07-29T03:37:40.960Z,4.65
2022-07-29T03:40:33.216Z,3.90
2022-07-29T03:43:20.704Z,3.90
2022-07-29T03:46:11.855Z,4.00
2022-07-29T03:49:01.420Z,4.18
2022-07-29T03:51:47.726Z,4.13
2022-07-29T03:54:34.038Z,3.67
2022-07-29T03:57:25.024Z,3.90
2022-07-29T04:00:12.024Z,3.83
2022-07-29T04:02:59.380Z,3.60
2022-07-29T04:05:58.546Z,3.50
2022-07-29T04:08:44.429Z,3.40
2022-07-29T04:11:30.694Z,3.72
2022-07-29T04:14:17.217Z,3.30
2022-07-29T04:17:05.875Z,4.35
2022-07-29T04:19:52.990Z,3.30
2022-07-29T04:22:38.988Z,2.92
2022-07-29T04:25:25.253Z,2.88
2022-07-29T04:28:12.518Z,2.65
2022-07-29T04:31:05.443Z,2.88
2022-07-29T04:33:51.738Z,2.40
2022-07-29T04:36:37.960Z,2.47
2022-07-29T04:39:24.419Z,2.75
2022-07-29T04:42:11.067Z,2.75
2022-07-29T04:44:58.397Z,2.33
2022-07-29T04:47:47.644Z,2.50
2022-07-29T04:50:33.680Z,2.80
2022-07-29T04:53:19.898Z,2.28
2022-07-29T04:56:06.811Z,2.47
2022-07-29T04:58:53.347Z,2.50
2022-07-29T05:01:39.455Z,2.88
2022-07-29T05:04:25.473Z,2.30
2022-07-29T05:07:11.217Z,2.60
2022-07-29T05:09:58.024Z,2.38
2022-07-29T05:12:44.131Z,2.28
2022-07-29T05:15:29.921Z,2.38
2022-07-29T05:18:16.537Z,2.63
2022-07-29T05:21:03.899Z,2.50
2022-07-29T05:23:50.342Z,2.45
2022-07-29T05:26:36.329Z,2.53
2022-07-29T05:29:43.095Z,2.58
2022-07-29T05:32:29.137Z,2.30
2022-07-29T05:35:16.438Z,2.70
2022-07-29T05:38:03.532Z,2.58
2022-07-29T05:40:50.867Z,2.20
2022-07-29T05:43:37.379Z,2.60
2022-07-29T05:46:31.193Z,2.25
2022-07-29T05:49:29.550Z,2.60
2022-07-29T05:52:17.982Z,2.20
2022-07-29T05:55:06.567Z,1.90
2022-07-29T05:57:53.576Z,2.30
2022-07-29T06:00:39.274Z,2.50
2022-07-29T06:03:25.256Z,2.25
2022-07-29T06:06:11.879Z,2.53
2022-07-29T06:09:12.491Z,2.47
2022-07-29T06:12:02.777Z,2.30
2022-07-29T06:14:56.342Z,1.85
2022-07-29T06:18:00.191Z,2.03
2022-07-29T06:20:50.239Z,2.00
2022-07-29T06:23:40.909Z,2.03
2022-07-29T06:26:33.363Z,2.10
2022-07-29T06:29:23.258Z,2.30
2022-07-29T06:32:10.289Z,2.25
2022-07-29T06:35:11.782Z,1.75
2022-07-29T06:38:25.662Z,2.97
2022-07-29T06:41:17.824Z,2.60
2022-07-29T06:44:18.431Z,2.38
2022-07-29T06:47:10.089Z,1.83
2022-07-29T06:49:59.258Z,2.00
2022-07-29T06:52:50.580Z,1.88
2022-07-29T06:55:39.609Z,2.50
2022-07-29T06:58:29.808Z,1.70
2022-07-29T07:01:16.668Z,2.38
2022-07-29T07:04:03.363Z,1.55
2022-07-29T07:06:50.343Z,2.00
2022-07-29T07:09:40.118Z,2.08
2022-07-29T07:12:27.451Z,1.73
2022-07-29T07:15:15.306Z,2.67
2022-07-29T07:18:02.502Z,2.30
2022-07-29T07:20:51.012Z,2.42
2022-07-29T07:23:40.747Z,2.20
2022-07-29T07:26:29.233Z,1.57
2022-07-29T07:29:17.106Z,1.98
2022-07-29T07:32:04.211Z,1.98
2022-07-29T07:34:50.673Z,1.50
2022-07-29T07:37:37.210Z,1.63
2022-07-29T07:40:23.837Z,1.38
2022-07-29T07:43:09.591Z,2.08
2022-07-29T07:45:56.068Z,1.77
2022-07-29T07:48:41.817Z,1.95
2022-07-29T07:51:28.189Z,1.70
2022-07-29T07:54:13.916Z,2.28
2022-07-29T07:57:01.578Z,1.80
2022-07-29T07:59:49.286Z,1.58
2022-07-29T08:02:36.094Z,1.50
2022-07-29T08:05:21.657Z,1.73
2022-07-29T08:08:08.250Z,1.95
2022-07-29T08:10:54.141Z,1.55
2022-07-29T08:13:40.218Z,1.67
2022-07-29T08:16:26.505Z,1.35
2022-07-29T08:19:13.424Z,1.65
2022-07-29T08:21:59.700Z,1.70
2022-07-29T08:25:04.518Z,1.23
2022-07-29T08:27:50.919Z,1.40
2022-07-29T08:30:37.349Z,1.45
2022-07-29T08:33:23.007Z,1.50
2022-07-29T08:36:09.150Z,1.20
2022-07-29T08:38:55.200Z,1.38
2022-07-29T08:41:44.672Z,1.40
2022-07-29T08:44:45.214Z,1.40
2022-07-29T08:47:32.722Z,1.27
2022-07-29T08:50:20.065Z,1.65
2022-07-29T08:53:08.755Z,1.52
2022-07-29T08:55:55.847Z,1.55
2022-07-29T08:58:42.432Z,1.20
2022-07-29T09:01:35.860Z,1.30
2022-07-29T09:04:32.263Z,1.30
2022-07-29T09:07:20.196Z,1.33
2022-07-29T09:10:07.199Z,1.30
2022-07-29T09:12:53.404Z,1.65
2022-07-29T09:15:40.053Z,1.38
2022-07-29T09:18:45.231Z,1.20
2022-07-29T09:21:59.579Z,1.50
2022-07-29T09:24:48.894Z,1.98
2022-07-29T09:27:35.691Z,1.60
2022-07-29T09:30:28.849Z,1.50
2022-07-29T09:33:18.616Z,1.13
2022-07-29T09:36:06.917Z,1.50
2022-07-29T09:39:00.961Z,1.50
2022-07-29T09:41:53.881Z,1.40
2022-07-29T09:44:49.109Z,1.70
2022-07-29T09:47:50.293Z,1.30
2022-07-29T09:50:37.907Z,1.33
2022-07-29T09:53:38.083Z,1.52
2022-07-29T09:56:41.495Z,1.48
2022-07-29T09:59:27.722Z,1.40
2022-07-29T10:02:18.905Z,1.50
2022-07-29T10:05:22.022Z,1.70
2022-07-29T10:08:09.168Z,1.48
2022-07-29T10:11:10.427Z,1.60
2022-07-29T10:13:57.013Z,1.25
2022-07-29T10:16:42.511Z,1.10
2022-07-29T10:19:32.941Z,1.35
2022-07-29T10:22:36.833Z,1.50
2022-07-29T10:25:26.486Z,1.70
2022-07-29T10:28:16.520Z,1.20
2022-07-29T10:31:06.917Z,1.80
2022-07-29T10:34:10.934Z,1.27
2022-07-29T10:37:46.040Z,1.30
2022-07-29T10:41:01.553Z,1.23
2022-07-29T10:43:51.446Z,1.60
2022-07-29T10:46:41.284Z,1.52
2022-07-29T10:49:37.147Z,1.67
2022-07-29T10:52:59.663Z,1.63
2022-07-29T10:55:48.079Z,1.52
2022-07-29T10:58:34.112Z,1.50
2022-07-29T11:01:37.145Z,1.75
2022-07-29T11:04:45.373Z,1.80
2022-07-29T11:07:45.747Z,1.58
2022-07-29T11:10:32.715Z,2.05
2022-07-29T11:13:52.339Z,3.05
2022-07-29T11:17:09.120Z,1.75
2022-07-29T11:20:34.698Z,1.35
2022-07-29T11:23:33.965Z,1.50
2022-07-29T11:26:23.294Z,1.55
2022-07-29T11:29:25.650Z,1.50
2022-07-29T11:32:22.746Z,1.30
2022-07-29T11:35:37.886Z,1.10
2022-07-29T11:38:28.763Z,1.80
2022-07-29T11:41:25.608Z,1.77
2022-07-29T11:44:14.037Z,2.15
2022-07-29T11:47:11.294Z,1.98
2022-07-29T11:50:00.222Z,1.25
2022-07-29T11:55:58.370Z,1.60
2022-07-29T11:58:44.355Z,1.75
2022-07-29T12:01:30.935Z,1.42
2022-07-29T12:04:18.998Z,2.47
2022-07-29T12:09:56.998Z,1.75
2022-07-29T12:12:43.824Z,1.45
2022-07-29T12:15:45.860Z,1.13
2022-07-29T12:18:32.876Z,1.23
2022-07-29T12:21:19.906Z,1.27
2022-07-29T12:24:12.715Z,1.23
2022-07-29T12:27:02.520Z,1.52
2022-07-29T12:29:58.932Z,1.20
2022-07-29T12:32:48.441Z,1.50
2022-07-29T12:35:36.893Z,1.35
2022-07-29T12:38:23.880Z,1.13
2022-07-29T12:41:11.106Z,1.55
2022-07-29T12:43:57.458Z,1.50
2022-07-29T12:46:43.737Z,2.53
2022-07-29T12:49:30.875Z,1.50
2022-07-29T12:52:32.811Z,1.50
2022-07-29T12:55:40.671Z,2.40
2022-07-29T12:58:39.053Z,3.65
2022-07-29T13:01:24.979Z,3.35
2022-07-29T13:04:11.312Z,3.28
2022-07-29T13:07:04.908Z,1.88
2022-07-29T13:09:52.082Z,1.50
2022-07-29T13:12:38.532Z,1.30
2022-07-29T13:15:24.501Z,2.00
2022-07-29T13:18:32.727Z,1.50
2022-07-29T13:21:20.020Z,1.50
2022-07-29T13:24:09.664Z,1.45
2022-07-29T13:26:55.832Z,1.48
2022-07-29T13:29:41.788Z,1.65
2022-07-29T13:32:30.358Z,1.38
2022-07-29T13:35:16.459Z,1.70
2022-07-29T13:38:02.763Z,1.85
2022-07-29T13:40:49.261Z,1.50
2022-07-29T13:43:36.070Z,1.40
2022-07-29T13:46:24.228Z,1.65
2022-07-29T13:49:11.588Z,1.20
2022-07-29T13:52:00.753Z,1.80
2022-07-29T13:54:47.595Z,1.25
2022-07-29T13:57:33.503Z,1.45
2022-07-29T14:00:20.559Z,1.40
2022-07-29T14:03:07.550Z,1.40
2022-07-29T14:05:54.403Z,1.30
2022-07-29T14:08:41.535Z,1.50
2022-07-29T14:11:27.616Z,1.50
2022-07-29T14:14:13.458Z,1.42
2022-07-29T14:17:00.130Z,1.33
2022-07-29T14:19:45.788Z,1.60
2022-07-29T14:22:32.430Z,1.40
2022-07-29T14:25:18.305Z,2.05
2022-07-29T14:28:06.995Z,1.48
2022-07-29T14:30:53.093Z,1.48
2022-07-29T14:33:39.459Z,1.85
2022-07-29T14:36:26.114Z,1.52
2022-07-29T14:39:12.441Z,1.85
2022-07-29T14:41:58.972Z,1.73
2022-07-29T14:44:45.613Z,2.40
2022-07-29T14:47:34.363Z,1.60
2022-07-29T14:50:23.367Z,1.80
2022-07-29T14:53:18.489Z,1.75
2022-07-29T14:56:33.885Z,2.30
2022-07-29T14:59:13.860Z,1.70
2022-07-29T15:02:01.743Z,1.50
2022-07-29T15:04:49.823Z,1.60
2022-07-29T15:07:36.731Z,1.70
2022-07-29T15:10:24.844Z,1.90
2022-07-29T15:13:17.675Z,1.60
2022-07-29T15:16:04.453Z,1.58
2022-07-29T15:18:51.614Z,1.70
2022-07-29T15:21:48.567Z,1.48
2022-07-29T15:24:35.801Z,1.30
2022-07-29T15:27:23.369Z,2.05
2022-07-29T15:30:11.451Z,1.40
2022-07-29T15:33:17.235Z,1.02
2022-07-29T15:36:05.613Z,1.63
2022-07-29T15:38:54.589Z,1.50
2022-07-29T15:41:40.726Z,1.38
2022-07-29T15:44:28.269Z,1.77
2022-07-29T15:47:17.860Z,1.38
2022-07-29T15:50:14.547Z,1.50
2022-07-29T15:53:02.196Z,1.50
2022-07-29T15:55:48.040Z,1.98
2022-07-29T15:58:34.792Z,1.73
2022-07-29T16:01:21.450Z,1.70
2022-07-29T16:04:08.655Z,1.85
2022-07-29T16:06:55.788Z,1.27
2022-07-29T16:09:49.289Z,1.60
2022-07-29T16:12:42.937Z,2.80
2022-07-29T16:15:30.035Z,1.67
2022-07-29T16:18:18.187Z,1.90
2022-07-29T16:21:06.221Z,1.75
2022-07-29T16:23:53.228Z,1.52
2022-07-29T16:26:39.747Z,1.77
2022-07-29T16:29:26.347Z,1.67
2022-07-29T16:32:14.518Z,1.55
2022-07-29T16:35:09.384Z,1.98
2022-07-29T16:37:57.845Z,2.10
2022-07-29T16:40:44.538Z,1.63
2022-07-29T16:43:31.321Z,1.65
2022-07-29T16:46:19.163Z,2.20
2022-07-29T16:49:06.596Z,1.83
2022-07-29T16:51:54.257Z,2.00
2022-07-29T16:54:45.324Z,1.80
2022-07-29T16:57:32.652Z,2.03
2022-07-29T17:00:21.181Z,2.10
2022-07-29T17:03:07.482Z,1.55
2022-07-29T17:05:55.433Z,1.67
2022-07-29T17:08:42.381Z,1.92
2022-07-29T17:11:51.949Z,1.95
2022-07-29T17:14:35.484Z,1.77
2022-07-29T17:17:39.179Z,2.30
2022-07-29T17:20:28.514Z,1.77
2022-07-29T17:23:15.835Z,1.80
2022-07-29T17:26:02.227Z,1.73
2022-07-29T17:28:49.213Z,1.50
2022-07-29T17:31:38.133Z,1.67
2022-07-29T17:34:24.387Z,1.98
2022-07-29T17:37:11.570Z,1.77
2022-07-29T17:40:00.396Z,1.80
2022-07-29T17:42:47.346Z,1.60
2022-07-29T17:45:48.787Z,2.08
2022-07-29T17:48:37.129Z,1.92
2022-07-29T17:51:25.617Z,1.60
2022-07-29T17:54:12.423Z,1.80
2022-07-29T17:56:59.284Z,2.28
2022-07-29T17:59:45.576Z,1.92
2022-07-29T18:02:32.148Z,1.65
2022-07-29T18:05:18.298Z,1.90
2022-07-29T18:08:05.199Z,1.77
2022-07-29T18:10:52.001Z,2.13
2022-07-29T18:13:39.330Z,1.80
2022-07-29T18:16:26.056Z,1.40
2022-07-29T18:19:12.480Z,1.80
2022-07-29T18:22:04.725Z,1.50
2022-07-29T18:24:51.301Z,1.77
2022-07-29T18:27:38.088Z,1.55
2022-07-29T18:30:24.255Z,1.95
2022-07-29T18:33:22.780Z,1.90
2022-07-29T18:36:11.659Z,1.75
2022-07-29T18:39:00.935Z,1.80
2022-07-29T18:41:51.377Z,2.03
2022-07-29T18:44:43.522Z,1.95
2022-07-29T18:47:31.994Z,1.75
2022-07-29T18:50:20.075Z,1.95
2022-07-29T18:53:08.387Z,2.55
2022-07-29T18:55:58.538Z,2.10
2022-07-29T18:58:45.840Z,2.90
2022-07-29T19:01:32.388Z,2.50
2022-07-29T19:04:18.847Z,3.13
2022-07-29T19:07:05.115Z,2.53
2022-07-29T19:09:53.041Z,2.35
2022-07-29T19:12:39.699Z,2.63
2022-07-29T19:15:25.844Z,2.50
2022-07-29T19:18:13.344Z,2.78
2022-07-29T19:20:59.982Z,3.05
2022-07-29T19:24:05.999Z,3.05
2022-07-29T19:26:52.215Z,3.08
2022-07-29T19:29:38.181Z,3.47
2022-07-29T19:32:25.616Z,3.35
2022-07-29T19:35:30.164Z,2.92
2022-07-29T19:38:16.083Z,2.60
2022-07-29T19:41:02.344Z,2.42
2022-07-29T19:43:51.272Z,2.72
2022-07-29T19:46:43.031Z,2.65
2022-07-29T19:49:29.542Z,3.42
2022-07-29T19:52:17.022Z,2.40
2022-07-29T19:55:07.664Z,3.10
2022-07-29T20:00:43.524Z,2.55
2022-07-29T20:03:29.927Z,2.97
2022-07-29T20:06:18.323Z,2.47
2022-07-29T20:09:06.105Z,2.65
2022-07-29T20:11:52.776Z,2.67
2022-07-29T20:14:38.758Z,2.85
2022-07-29T20:17:25.807Z,3.08
2022-07-29T20:20:12.200Z,3.13
2022-07-29T20:22:59.567Z,3.10
2022-07-29T20:25:45.807Z,3.17
2022-07-29T20:28:32.440Z,3.03
2022-07-29T20:31:19.034Z,3.58
2022-07-29T20:34:05.167Z,3.15
2022-07-29T20:36:51.352Z,3.03
2022-07-29T20:39:37.859Z,2.63
2022-07-29T20:42:24.374Z,3.03
2022-07-29T20:45:12.291Z,3.72
2022-07-29T20:47:58.635Z,2.72
2022-07-29T20:50:46.292Z,3.08
2022-07-29T20:53:34.530Z,3.72
2022-07-29T20:56:21.807Z,3.75
2022-07-29T20:59:09.139Z,4.00
2022-07-29T21:01:55.788Z,3.20
2022-07-29T21:04:44.219Z,3.00
2022-07-29T21:07:30.761Z,3.50
2022-07-29T21:10:18.337Z,3.50
2022-07-29T21:13:04.961Z,3.58
2022-07-29T21:15:52.095Z,2.63
2022-07-29T21:18:41.649Z,2.40
2022-07-29T21:21:28.032Z,3.47
2022-07-29T21:24:15.054Z,2.58
2022-07-29T21:27:21.560Z,2.80
2022-07-29T21:30:09.022Z,2.65
2022-07-29T21:32:54.967Z,3.17
2022-07-29T21:36:06.631Z,3.22
2022-07-29T21:38:47.693Z,2.88
2022-07-29T21:41:37.490Z,2.30
2022-07-29T21:44:23.642Z,2.20
2022-07-29T21:47:10.642Z,3.20
2022-07-29T21:49:56.758Z,2.90
2022-07-29T21:52:43.235Z,2.17
2022-07-29T21:55:30.109Z,3.88
2022-07-29T21:58:18.753Z,2.28
2022-07-29T22:01:05.104Z,2.15
2022-07-29T22:03:51.367Z,2.40
2022-07-29T22:06:37.204Z,1.92
2022-07-29T22:09:24.069Z,1.80
2022-07-29T22:12:10.037Z,2.85
2022-07-29T22:14:56.206Z,2.05
2022-07-29T22:17:42.205Z,2.35
2022-07-29T22:20:28.923Z,1.58
2022-07-29T22:23:14.980Z,1.60
2022-07-29T22:26:03.905Z,2.40
2022-07-29T22:28:50.007Z,1.95
2022-07-29T22:31:36.068Z,2.28
2022-07-29T22:34:22.443Z,1.67
2022-07-29T22:37:08.594Z,2.03
2022-07-29T22:39:54.492Z,1.92
2022-07-29T22:42:40.895Z,1.80
2022-07-29T22:45:28.419Z,1.88
2022-07-29T22:48:14.745Z,2.28
2022-07-29T22:51:01.777Z,1.90
2022-07-29T22:53:47.813Z,1.63
2022-07-29T22:56:34.428Z,1.90
2022-07-29T22:59:20.547Z,2.78
2022-07-29T23:02:07.233Z,1.67
2022-07-29T23:04:54.793Z,2.28
2022-07-29T23:07:40.654Z,1.60
2022-07-29T23:10:28.662Z,2.00
2022-07-29T23:13:15.766Z,1.52
2022-07-29T23:16:02.755Z,2.00
2022-07-29T23:18:49.416Z,2.00
2022-07-29T23:21:41.830Z,1.60
2022-07-29T23:24:28.558Z,2.38
2022-07-29T23:27:14.766Z,2.35
2022-07-29T23:30:01.534Z,2.22
2022-07-29T23:32:47.911Z,2.00
2022-07-29T23:35:34.219Z,1.77
2022-07-29T23:38:23.110Z,2.25
2022-07-29T23:41:10.653Z,2.75
2022-07-29T23:43:58.570Z,3.30
2022-07-29T23:46:46.198Z,2.75
2022-07-29T23:49:32.727Z,2.53
2022-07-29T23:52:18.540Z,2.47
2022-07-29T23:55:36.799Z,2.03
2022-07-29T23:58:11.002Z,2.60
